createdAt,value
2023-01-18T00:00:47.494Z,21.37
2023-01-18T00:03:14.498Z,19.48
2023-01-18T00:05:42.324Z,17.77
2023-01-18T00:08:13.688Z,18.67
2023-01-18T00:10:40.426Z,17.92
2023-01-18T00:13:07.052Z,15.60
2023-01-18T00:15:34.719Z,22.10
2023-01-18T00:18:01.881Z,15.13
2023-01-18T00:20:30.353Z,19.30
2023-01-18T00:23:00.040Z,17.02
2023-01-18T00:25:27.004Z,15.27
2023-01-18T00:27:54.768Z,16.92
2023-01-18T00:30:24.628Z,14.70
2023-01-18T00:32:58.994Z,14.60
2023-01-18T00:35:26.232Z,18.95
2023-01-18T00:37:54.121Z,16.27
2023-01-18T00:40:22.165Z,16.10
2023-01-18T00:43:07.209Z,16.98
2023-01-18T00:45:33.838Z,15.55
2023-01-18T00:48:02.542Z,17.92
2023-01-18T00:50:29.569Z,17.40
2023-01-18T00:52:58.593Z,16.25
2023-01-18T00:55:25.971Z,18.23
2023-01-18T00:57:52.633Z,19.30
2023-01-18T01:00:19.380Z,17.17
2023-01-18T01:02:46.028Z,18.67
2023-01-18T01:05:36.866Z,19.10
2023-01-18T01:08:04.703Z,17.17
2023-01-18T01:10:32.531Z,22.02
2023-01-18T01:13:17.830Z,20.42
2023-01-18T01:16:03.052Z,21.37
2023-01-18T01:18:48.772Z,18.83
2023-01-18T01:21:33.879Z,20.27
2023-01-18T01:24:19.020Z,21.30
2023-01-18T01:26:45.763Z,18.45
2023-01-18T01:29:12.334Z,16.43
2023-01-18T01:31:39.342Z,18.90
2023-01-18T01:34:05.956Z,14.27
2023-01-18T01:36:32.754Z,15.65
2023-01-18T01:38:59.352Z,16.13
2023-01-18T01:41:26.693Z,15.60
2023-01-18T01:43:55.833Z,17.70
2023-01-18T01:46:48.648Z,14.85
2023-01-18T01:49:26.655Z,16.67
2023-01-18T01:52:02.913Z,16.92
2023-01-18T01:54:35.044Z,17.30
2023-01-18T01:57:12.376Z,23.67
2023-01-18T01:59:44.283Z,27.83
2023-01-18T02:02:11.997Z,24.83
2023-01-18T02:04:44.156Z,25.10
2023-01-18T02:07:13.760Z,19.97
2023-01-18T02:09:41.235Z,18.30
2023-01-18T02:12:07.843Z,19.13
2023-01-18T02:14:34.550Z,15.32
2023-01-18T02:17:32.753Z,16.58
2023-01-18T02:20:19.829Z,16.30
2023-01-18T02:23:19.018Z,16.65
2023-01-18T02:26:04.235Z,18.13
2023-01-18T02:28:35.543Z,18.02
2023-01-18T02:31:07.916Z,18.08
2023-01-18T02:33:50.899Z,18.07
2023-01-18T02:36:29.629Z,16.23
2023-01-18T02:39:02.338Z,15.02
2023-01-18T02:42:02.683Z,16.98
2023-01-18T02:44:55.992Z,19.35
2023-01-18T02:47:24.476Z,15.13
2023-01-18T02:49:51.008Z,17.50
2023-01-18T02:52:47.163Z,16.40
2023-01-18T02:55:31.460Z,17.55
2023-01-18T02:58:07.677Z,17.27
2023-01-18T03:00:38.056Z,14.93
2023-01-18T03:03:07.153Z,18.23
2023-01-18T03:05:36.067Z,16.98
2023-01-18T03:08:11.321Z,16.35
2023-01-18T03:10:54.137Z,15.77
2023-01-18T03:13:30.480Z,15.43
2023-01-18T03:16:09.426Z,17.13
2023-01-18T03:19:01.878Z,17.27
2023-01-18T03:21:41.727Z,19.92
2023-01-18T03:24:10.296Z,16.42
2023-01-18T03:26:43.319Z,18.23
2023-01-18T03:29:31.894Z,16.27
2023-01-18T03:32:22.087Z,17.85
2023-01-18T03:35:07.945Z,16.95
2023-01-18T03:37:40.652Z,13.98
2023-01-18T03:40:15.586Z,18.47
2023-01-18T03:42:51.195Z,20.30
2023-01-18T03:45:42.997Z,18.65
2023-01-18T03:48:10.684Z,18.90
2023-01-18T03:51:09.216Z,16.58
2023-01-18T03:54:02.246Z,19.43
2023-01-18T03:56:49.621Z,19.13
2023-01-18T03:59:16.540Z,18.50
2023-01-18T04:01:44.931Z,16.70
2023-01-18T04:04:11.621Z,18.38
2023-01-18T04:06:38.450Z,16.33
2023-01-18T04:09:05.357Z,18.17
2023-01-18T04:11:32.048Z,16.88
2023-01-18T04:13:58.677Z,18.75
2023-01-18T04:16:25.373Z,18.67
2023-01-18T04:18:52.387Z,18.83
2023-01-18T04:21:19.062Z,17.63
2023-01-18T04:23:45.577Z,17.80
2023-01-18T04:26:15.248Z,20.90
2023-01-18T04:28:42.320Z,18.65
2023-01-18T04:31:09.043Z,20.33
2023-01-18T04:33:35.808Z,16.35
2023-01-18T04:36:02.423Z,18.23
2023-01-18T04:38:28.990Z,15.45
2023-01-18T04:40:55.690Z,16.42
2023-01-18T04:43:22.508Z,17.40
2023-01-18T04:45:56.065Z,14.93
2023-01-18T04:48:23.834Z,16.67
2023-01-18T04:50:50.936Z,16.50
2023-01-18T04:53:17.866Z,14.52
2023-01-18T04:55:45.311Z,18.73
2023-01-18T04:58:11.977Z,17.15
2023-01-18T05:00:39.969Z,15.20
2023-01-18T05:03:11.641Z,15.73
2023-01-18T05:05:38.805Z,17.85
2023-01-18T05:08:05.885Z,17.87
2023-01-18T05:10:33.577Z,17.48
2023-01-18T05:13:00.653Z,19.55
2023-01-18T05:15:27.625Z,15.52
2023-01-18T05:17:54.204Z,16.02
2023-01-18T05:20:20.986Z,14.40
2023-01-18T05:22:47.615Z,16.98
2023-01-18T05:25:14.594Z,15.93
2023-01-18T05:27:41.189Z,15.25
2023-01-18T05:30:09.608Z,13.65
2023-01-18T05:32:36.323Z,16.53
2023-01-18T05:35:06.719Z,14.52
2023-01-18T05:37:33.379Z,15.00
2023-01-18T05:39:59.975Z,16.90
2023-01-18T05:42:26.580Z,14.18
2023-01-18T05:44:53.438Z,15.27
2023-01-18T05:47:20.027Z,14.35
2023-01-18T05:49:46.981Z,13.88
2023-01-18T05:52:13.587Z,17.73
2023-01-18T05:54:40.295Z,14.77
2023-01-18T05:57:06.886Z,15.87
2023-01-18T05:59:35.195Z,16.33
2023-01-18T06:02:01.851Z,15.50
2023-01-18T06:04:28.779Z,16.73
2023-01-18T06:06:55.528Z,20.80
2023-01-18T06:09:22.290Z,24.03
2023-01-18T06:11:48.886Z,25.42
2023-01-18T06:14:15.979Z,27.10
2023-01-18T06:16:42.639Z,28.92
2023-01-18T06:19:09.351Z,32.20
2023-01-18T06:21:36.350Z,41.83
2023-01-18T06:24:03.044Z,40.72
2023-01-18T06:26:31.162Z,30.92
2023-01-18T06:28:58.143Z,19.83
2023-01-18T06:31:24.838Z,18.73
2023-01-18T06:33:51.502Z,18.97
2023-01-18T06:36:18.227Z,22.55
2023-01-18T06:38:44.911Z,37.72
2023-01-18T06:41:11.551Z,35.50
2023-01-18T06:43:38.148Z,40.85
2023-01-18T06:46:07.725Z,38.73
2023-01-18T06:48:34.411Z,28.92
2023-01-18T06:51:01.377Z,29.75
2023-01-18T06:53:28.461Z,23.52
2023-01-18T06:55:56.888Z,22.52
2023-01-18T06:58:25.941Z,23.87
2023-01-18T07:00:57.457Z,25.17
2023-01-18T07:03:25.894Z,29.90
2023-01-18T07:05:53.998Z,22.98
2023-01-18T07:08:21.043Z,20.20
2023-01-18T07:10:48.612Z,19.20
2023-01-18T07:13:15.638Z,18.75
2023-01-18T07:15:42.671Z,21.85
2023-01-18T07:18:09.293Z,16.88
2023-01-18T07:20:36.722Z,16.95
2023-01-18T07:23:04.943Z,18.17
2023-01-18T07:25:31.669Z,17.98
2023-01-18T07:27:58.322Z,18.23
2023-01-18T07:30:25.216Z,19.70
2023-01-18T07:32:53.195Z,28.15
2023-01-18T07:35:24.402Z,20.10
2023-01-18T07:37:53.048Z,29.67
2023-01-18T07:40:21.280Z,19.38
2023-01-18T07:42:49.004Z,19.63
2023-01-18T07:45:16.067Z,15.80
2023-01-18T07:47:42.987Z,17.60
2023-01-18T07:50:10.673Z,14.88
2023-01-18T07:52:37.262Z,13.20
2023-01-18T07:55:06.561Z,13.85
2023-01-18T07:57:33.473Z,16.25
2023-01-18T08:00:00.073Z,13.80
2023-01-18T08:02:26.963Z,14.85
2023-01-18T08:04:53.666Z,15.93
2023-01-18T08:07:20.283Z,15.27
2023-01-18T08:09:46.878Z,13.93
2023-01-18T08:12:17.488Z,13.77
2023-01-18T08:14:45.795Z,13.35
2023-01-18T08:17:12.566Z,16.33
2023-01-18T08:19:39.256Z,16.70
2023-01-18T08:22:07.078Z,18.52
2023-01-18T08:24:33.948Z,15.30
2023-01-18T08:27:00.725Z,15.13
2023-01-18T08:29:27.370Z,14.95
2023-01-18T08:31:54.275Z,11.80
2023-01-18T08:34:21.853Z,14.43
2023-01-18T08:36:50.948Z,14.87
2023-01-18T08:39:17.650Z,14.70
2023-01-18T08:41:44.860Z,21.88
2023-01-18T08:44:11.584Z,19.95
2023-01-18T08:46:39.274Z,19.70
2023-01-18T08:49:06.451Z,15.33
2023-01-18T08:51:33.265Z,12.60
2023-01-18T08:54:00.051Z,15.13
2023-01-18T08:56:27.232Z,16.42
2023-01-18T08:58:54.759Z,14.40
2023-01-18T09:01:23.461Z,11.97
2023-01-18T09:03:52.928Z,15.65
2023-01-18T09:06:19.529Z,12.13
2023-01-18T09:08:49.692Z,11.93
2023-01-18T09:11:17.711Z,12.38
2023-01-18T09:13:59.368Z,15.27
2023-01-18T09:16:26.888Z,13.63
2023-01-18T09:18:55.276Z,11.00
2023-01-18T09:21:22.010Z,12.05
2023-01-18T09:23:49.359Z,14.52
2023-01-18T09:26:17.486Z,12.13
2023-01-18T09:28:46.997Z,11.80
2023-01-18T09:31:13.720Z,10.98
2023-01-18T09:33:51.130Z,11.65
2023-01-18T09:36:21.465Z,12.57
2023-01-18T09:38:48.092Z,11.27
2023-01-18T09:41:43.110Z,11.20
2023-01-18T09:44:28.812Z,11.82
2023-01-18T09:47:03.772Z,10.27
2023-01-18T09:49:37.530Z,11.93
2023-01-18T09:52:23.058Z,9.83
2023-01-18T09:54:49.831Z,10.68
2023-01-18T09:57:28.831Z,10.98
2023-01-18T09:59:58.416Z,11.98
2023-01-18T10:02:39.231Z,10.32
2023-01-18T10:05:11.598Z,12.33
2023-01-18T10:08:07.860Z,12.45
2023-01-18T10:10:39.167Z,13.52
2023-01-18T10:13:33.737Z,11.90
2023-01-18T10:16:02.421Z,15.05
2023-01-18T10:18:29.036Z,13.80
2023-01-18T10:21:02.125Z,13.27
2023-01-18T10:23:31.508Z,14.18
2023-01-18T10:26:04.178Z,13.15
2023-01-18T10:28:45.174Z,11.70
2023-01-18T10:31:39.747Z,11.97
2023-01-18T10:34:17.643Z,10.93
2023-01-18T10:36:47.634Z,11.50
2023-01-18T10:39:33.779Z,14.00
2023-01-18T10:42:06.110Z,9.45
2023-01-18T10:44:33.445Z,11.33
2023-01-18T10:47:01.306Z,10.82
2023-01-18T10:49:39.899Z,11.40
2023-01-18T10:52:26.625Z,9.13
2023-01-18T10:54:56.676Z,9.15
2023-01-18T10:57:28.503Z,14.17
2023-01-18T10:59:56.578Z,8.15
2023-01-18T11:02:28.040Z,8.50
2023-01-18T11:04:59.663Z,8.73
2023-01-18T11:07:28.384Z,8.52
2023-01-18T11:10:02.051Z,10.53
2023-01-18T11:12:38.847Z,10.98
2023-01-18T11:15:14.763Z,9.57
2023-01-18T11:17:58.585Z,10.38
2023-01-18T11:20:47.826Z,12.40
2023-01-18T11:23:23.098Z,8.40
2023-01-18T11:26:07.332Z,10.18
2023-01-18T11:29:01.652Z,10.45
2023-01-18T11:31:45.405Z,9.57
2023-01-18T11:34:32.734Z,11.38
2023-01-18T11:37:00.862Z,9.93
2023-01-18T11:39:37.190Z,10.20
2023-01-18T11:42:11.457Z,9.02
2023-01-18T11:45:19.720Z,9.00
2023-01-18T11:48:23.355Z,10.15
2023-01-18T11:50:58.894Z,9.60
2023-01-18T11:53:25.452Z,11.40
2023-01-18T11:56:07.311Z,8.68
2023-01-18T11:58:37.426Z,10.40
2023-01-18T12:01:41.766Z,11.55
2023-01-18T12:04:23.149Z,8.57
2023-01-18T12:07:19.085Z,12.10
2023-01-18T12:09:52.780Z,8.27
2023-01-18T12:12:52.694Z,9.88
2023-01-18T12:15:39.595Z,9.05
2023-01-18T12:18:41.461Z,11.63
2023-01-18T12:21:35.470Z,8.82
2023-01-18T12:24:33.899Z,9.25
2023-01-18T12:27:03.271Z,10.38
2023-01-18T12:29:56.829Z,8.93
2023-01-18T12:32:23.432Z,10.25
2023-01-18T12:35:28.316Z,10.57
2023-01-18T12:38:07.127Z,9.55
2023-01-18T12:40:47.896Z,8.60
2023-01-18T12:43:43.653Z,9.75
2023-01-18T12:46:16.655Z,12.33
2023-01-18T12:48:51.731Z,12.98
2023-01-18T12:51:22.695Z,10.52
2023-01-18T12:54:36.567Z,10.32
2023-01-18T12:57:04.135Z,12.50
2023-01-18T12:59:41.912Z,13.93
2023-01-18T13:02:23.809Z,11.40
2023-01-18T13:05:17.755Z,10.15
2023-01-18T13:07:50.454Z,12.57
2023-01-18T13:10:22.291Z,10.00
2023-01-18T13:12:50.801Z,10.90
2023-01-18T13:15:31.411Z,11.07
2023-01-18T13:18:08.103Z,10.07
2023-01-18T13:20:46.533Z,12.60
2023-01-18T13:23:25.223Z,11.43
2023-01-18T13:26:09.908Z,11.47
2023-01-18T13:28:37.033Z,10.73
2023-01-18T13:31:06.219Z,11.40
2023-01-18T13:33:36.377Z,11.90
2023-01-18T13:36:07.904Z,14.05
2023-01-18T13:38:41.569Z,11.70
2023-01-18T13:41:12.175Z,13.95
2023-01-18T13:43:41.671Z,13.18
2023-01-18T13:46:08.403Z,12.13
2023-01-18T13:48:35.049Z,10.60
2023-01-18T13:51:01.631Z,12.27
2023-01-18T13:53:31.347Z,10.07
2023-01-18T13:56:03.903Z,12.68
2023-01-18T13:58:33.844Z,11.65
2023-01-18T14:01:03.872Z,10.48
2023-01-18T14:03:34.498Z,11.57
2023-01-18T14:06:20.973Z,40.83
2023-01-18T14:08:52.809Z,33.08
2023-01-18T14:11:29.334Z,34.28
2023-01-18T14:14:00.588Z,27.15
2023-01-18T14:16:31.743Z,22.80
2023-01-18T14:19:18.268Z,17.65
2023-01-18T14:22:07.249Z,15.35
2023-01-18T14:24:49.985Z,17.52
2023-01-18T14:27:27.151Z,12.75
2023-01-18T14:30:02.557Z,13.27
2023-01-18T14:32:36.228Z,15.25
2023-01-18T14:35:16.083Z,11.40
2023-01-18T14:37:43.115Z,12.25
2023-01-18T14:40:12.824Z,13.60
2023-01-18T14:42:48.587Z,11.03
2023-01-18T14:45:28.928Z,14.40
2023-01-18T14:47:59.424Z,13.75
2023-01-18T14:50:32.038Z,21.02
2023-01-18T14:52:59.881Z,18.17
2023-01-18T14:55:30.695Z,15.90
2023-01-18T14:58:09.371Z,17.83
2023-01-18T15:00:42.984Z,14.13
2023-01-18T15:03:24.165Z,14.70
2023-01-18T15:05:58.680Z,14.52
2023-01-18T15:08:28.887Z,13.67
2023-01-18T15:10:56.015Z,11.95
2023-01-18T15:13:26.534Z,13.48
2023-01-18T15:15:55.037Z,13.18
2023-01-18T15:18:24.885Z,14.70
2023-01-18T15:20:59.254Z,16.20
2023-01-18T15:23:27.728Z,15.27
2023-01-18T15:25:55.556Z,15.73
2023-01-18T15:28:24.451Z,17.55
2023-01-18T15:30:56.052Z,17.98
2023-01-18T15:33:25.962Z,16.03
2023-01-18T15:36:01.153Z,17.08
2023-01-18T15:38:28.374Z,14.18
2023-01-18T15:40:58.390Z,14.15
2023-01-18T15:43:35.919Z,14.98
2023-01-18T15:46:02.989Z,15.67
2023-01-18T15:48:36.943Z,12.40
2023-01-18T15:51:08.447Z,16.23
2023-01-18T15:53:45.937Z,14.48
2023-01-18T15:56:19.139Z,20.40
2023-01-18T15:58:50.022Z,24.63
2023-01-18T16:01:20.382Z,22.08
2023-01-18T16:03:49.795Z,24.25
2023-01-18T16:06:22.552Z,24.17
2023-01-18T16:09:12.651Z,24.77
2023-01-18T16:11:54.174Z,21.63
2023-01-18T16:14:37.396Z,22.25
2023-01-18T16:17:14.371Z,20.35
2023-01-18T16:19:47.680Z,22.55
2023-01-18T16:22:21.670Z,22.30
2023-01-18T16:24:55.169Z,22.57
2023-01-18T16:27:24.721Z,29.15
2023-01-18T16:29:54.805Z,25.40
2023-01-18T16:32:31.118Z,22.40
2023-01-18T16:34:59.120Z,22.13
2023-01-18T16:37:25.749Z,30.23
2023-01-18T16:39:54.450Z,23.75
2023-01-18T16:42:26.619Z,20.27
2023-01-18T16:44:56.362Z,19.67
2023-01-18T16:47:22.995Z,22.15
2023-01-18T16:49:49.577Z,21.40
2023-01-18T16:52:16.965Z,19.35
2023-01-18T16:54:45.179Z,20.05
2023-01-18T16:57:19.691Z,21.02
2023-01-18T16:59:46.561Z,21.55
2023-01-18T17:02:13.351Z,20.30
2023-01-18T17:04:40.116Z,24.13
2023-01-18T17:07:06.745Z,22.73
2023-01-18T17:09:48.048Z,21.02
2023-01-18T17:12:15.938Z,19.73
2023-01-18T17:14:42.531Z,20.60
2023-01-18T17:17:10.596Z,20.23
2023-01-18T17:19:37.924Z,19.88
2023-01-18T17:22:04.724Z,20.20
2023-01-18T17:24:31.466Z,23.58
2023-01-18T17:26:58.117Z,22.30
2023-01-18T17:29:24.927Z,27.05
2023-01-18T17:31:53.032Z,28.58
2023-01-18T17:34:28.114Z,29.27
2023-01-18T17:36:58.207Z,26.90
2023-01-18T17:39:32.113Z,23.43
2023-01-18T17:42:14.347Z,22.10
2023-01-18T17:44:43.402Z,22.52
2023-01-18T17:47:10.592Z,22.13
2023-01-18T17:49:37.329Z,22.65
2023-01-18T17:52:04.066Z,23.80
2023-01-18T17:54:30.596Z,24.77
2023-01-18T17:56:57.168Z,22.60
2023-01-18T17:59:23.894Z,24.75
2023-01-18T18:01:50.613Z,26.65
2023-01-18T18:04:17.364Z,19.20
2023-01-18T18:06:53.765Z,21.27
2023-01-18T18:09:20.836Z,26.95
2023-01-18T18:11:47.398Z,21.02
2023-01-18T18:14:14.018Z,23.80
2023-01-18T18:16:43.453Z,28.33
2023-01-18T18:19:14.820Z,24.20
2023-01-18T18:21:42.811Z,25.02
2023-01-18T18:24:09.660Z,22.23
2023-01-18T18:26:36.436Z,23.95
2023-01-18T18:29:03.096Z,23.23
2023-01-18T18:31:29.796Z,26.42
2023-01-18T18:33:56.443Z,27.90
2023-01-18T18:36:26.965Z,25.30
2023-01-18T18:38:53.650Z,27.38
2023-01-18T18:41:20.265Z,30.93
2023-01-18T18:43:46.930Z,28.75
2023-01-18T18:46:14.357Z,29.60
2023-01-18T18:48:41.000Z,29.95
2023-01-18T18:51:07.589Z,32.70
2023-01-18T18:53:38.462Z,30.63
2023-01-18T18:56:09.183Z,27.00
2023-01-18T18:58:36.697Z,27.90
2023-01-18T19:01:05.124Z,24.75
2023-01-18T19:03:32.428Z,28.23
2023-01-18T19:05:59.266Z,32.23
2023-01-18T19:08:25.898Z,27.58
2023-01-18T19:10:52.570Z,30.52
2023-01-18T19:13:19.390Z,29.13
2023-01-18T19:15:47.450Z,28.52
2023-01-18T19:18:14.628Z,29.57
2023-01-18T19:20:41.976Z,30.58
2023-01-18T19:23:10.315Z,30.05
2023-01-18T19:25:40.690Z,32.33
2023-01-18T19:28:07.619Z,29.92
2023-01-18T19:30:34.416Z,31.23
2023-01-18T19:33:02.915Z,28.75
2023-01-18T19:35:31.112Z,29.30
2023-01-18T19:38:00.102Z,30.10
2023-01-18T19:40:26.816Z,28.25
2023-01-18T19:42:54.506Z,29.27
2023-01-18T19:45:27.868Z,30.40
2023-01-18T19:47:56.602Z,26.98
2023-01-18T19:50:23.496Z,33.22
2023-01-18T19:52:50.329Z,28.75
2023-01-18T19:55:17.041Z,34.57
2023-01-18T19:57:43.791Z,29.92
2023-01-18T20:00:11.148Z,34.28
2023-01-18T20:02:38.860Z,38.63
2023-01-18T20:05:06.087Z,35.25
2023-01-18T20:07:32.931Z,31.60
2023-01-18T20:09:59.588Z,32.10
2023-01-18T20:12:29.250Z,31.05
2023-01-18T20:14:55.817Z,29.67
2023-01-18T20:17:22.961Z,33.30
2023-01-18T20:19:50.871Z,31.60
2023-01-18T20:22:17.559Z,32.53
2023-01-18T20:24:44.281Z,33.15
2023-01-18T20:27:16.201Z,31.90
2023-01-18T20:29:43.938Z,31.77
2023-01-18T20:32:18.576Z,31.63
2023-01-18T20:37:34.330Z,33.13
2023-01-18T20:40:01.317Z,29.90
2023-01-18T20:42:28.494Z,29.48
2023-01-18T20:45:00.774Z,32.53
2023-01-18T20:47:30.754Z,26.48
2023-01-18T20:50:01.986Z,31.95
2023-01-18T20:52:29.663Z,28.58
2023-01-18T20:54:58.176Z,30.40
2023-01-18T20:57:29.938Z,32.43
2023-01-18T20:59:57.132Z,32.03
2023-01-18T21:02:24.152Z,34.00
2023-01-18T21:04:51.173Z,31.27
2023-01-18T21:07:18.899Z,29.10
2023-01-18T21:09:46.391Z,33.03
2023-01-18T21:12:13.684Z,32.80
2023-01-18T21:14:40.713Z,28.98
2023-01-18T21:17:08.744Z,30.52
2023-01-18T21:19:35.601Z,31.52
2023-01-18T21:22:02.745Z,33.30
2023-01-18T21:24:33.299Z,28.27
2023-01-18T21:27:04.032Z,28.38
2023-01-18T21:29:35.011Z,31.13
2023-01-18T21:32:03.734Z,29.50
2023-01-18T21:34:30.988Z,30.27
2023-01-18T21:36:58.665Z,29.13
2023-01-18T21:39:25.600Z,30.35
2023-01-18T21:42:11.847Z,31.55
2023-01-18T21:44:58.001Z,34.05
2023-01-18T21:47:25.762Z,33.37
2023-01-18T21:50:17.519Z,33.15
2023-01-18T21:53:07.537Z,28.90
2023-01-18T21:55:37.130Z,29.38
2023-01-18T21:58:22.654Z,31.40
2023-01-18T22:00:55.386Z,30.80
2023-01-18T22:03:24.214Z,34.60
2023-01-18T22:05:54.682Z,28.00
2023-01-18T22:08:21.871Z,29.95
2023-01-18T22:10:48.979Z,28.67
2023-01-18T22:13:16.032Z,34.37
2023-01-18T22:15:42.953Z,32.20
2023-01-18T22:18:09.897Z,28.92
2023-01-18T22:20:37.597Z,29.85
2023-01-18T22:23:04.875Z,31.15
2023-01-18T22:25:31.503Z,27.87
2023-01-18T22:27:58.309Z,30.92
2023-01-18T22:30:25.340Z,33.92
2023-01-18T22:32:51.985Z,32.53
2023-01-18T22:35:18.725Z,32.90
2023-01-18T22:37:45.356Z,37.43
2023-01-18T22:40:12.233Z,32.72
2023-01-18T22:42:38.855Z,31.23
2023-01-18T22:45:06.291Z,33.45
2023-01-18T22:47:32.900Z,33.70
2023-01-18T22:49:59.819Z,35.83
2023-01-18T22:52:26.453Z,33.80
2023-01-18T22:54:53.051Z,32.17
2023-01-18T22:57:19.757Z,30.38
2023-01-18T22:59:47.834Z,35.03
2023-01-18T23:02:15.205Z,31.17
2023-01-18T23:04:42.001Z,32.40
2023-01-18T23:07:08.888Z,31.05
2023-01-18T23:09:35.570Z,34.20
2023-01-18T23:12:02.226Z,31.25
2023-01-18T23:15:04.241Z,34.93
2023-01-18T23:17:39.825Z,30.77
2023-01-18T23:20:08.210Z,29.17
2023-01-18T23:22:34.987Z,27.17
2023-01-18T23:25:02.130Z,28.63
2023-01-18T23:27:28.929Z,30.03
2023-01-18T23:29:58.913Z,21.63
2023-01-18T23:32:30.310Z,31.23
2023-01-18T23:34:58.847Z,34.05
2023-01-18T23:37:26.519Z,33.42
2023-01-18T23:40:11.819Z,31.47
2023-01-18T23:42:57.321Z,27.38
2023-01-18T23:45:42.828Z,31.38
2023-01-18T23:48:31.393Z,26.70
2023-01-18T23:51:16.978Z,29.23
2023-01-18T23:54:02.436Z,32.33
2023-01-18T23:56:29.376Z,29.35
2023-01-18T23:58:59.327Z,29.55
